Airfield :
LOGIN :

Register | Disclaimer

   EN    FR    IT 

 










Legend :    VFR   Marginal VFR   IFR   Intensive IFR   Very Intensive IFR
Visi :
Ceiling :
>= 8 km
>= 3000ft
5 to 8 km
1000 to 3000 ft
1500m to 5 km
500 to 1000 ft
800 to 1500m
200 to 500 ft
< 800m
< 200 ft
Symbols :   Thunderstorms  Fog  Heavy snow  Heavy precipitations  Wind > 20 kt
SIGMETs :     Misc.  Thunderstorms  Icing  Turbulence  Mountain Waves  Volcanic Ashes






- Airport Elevation : 2767 ft


LTAE - Akıncı Air Base

CURRENT METAR :
  • 291350Z 19012KT 9999 FEW030CB SCT035 29/08 Q1012 TEMPO -TSRA BECMG TL1450 VRB02KT RMK RWY21 20011KT 160V220

EXPIRED METARs :
  • 291250Z 19015KT 150V220 9999 FEW030CB SCT035 31/08 Q1013 TEMPO -TSRA BECMG TL1350 VRB02KT RMK RWY21 20012G22KT 150V220
  • 291150Z 18008KT 130V210 9999 FEW030CB SCT035 30/09 Q1014 TEMPO -TSRA RMK RWY21 19010KT 120V230

TAF TAF LTAE
Valid from the 29 at 12:00 until the 29 at 21:00 UTC


291040Z 2912/2921 VRB02KT 9999 SCT040 SCT100
TEMPO 2912/2915 22015G25KT -TSRA FEW025CB BKN030
TEMPO 2915/2918 22015G25KT -TSRA FEW025CB BKN030
PROB30
TEMPO 2918/2921 -TSRA FEW025CB BKN030



MET'MAP, your aeronautical weather chart ! - Copyright ORBIFLY December 2007 - Disclaimer

ORBIFLY MET'MAP TEAM :

Programming & Development : Alexandra Zaïnal
Concept & original design : Baudouin d'Aumeries
Assistance for programming : Marc-Olivier Méhu
Technical & hardware support : Manuel Goepfert

Contact : metmap@orbifly.com




SOURCES & CREDITS :

   NOAA